createdAt,value
2023-04-02T00:02:19.634Z,98690.03
2023-04-02T00:05:06.215Z,98697.78
2023-04-02T00:07:33.296Z,98696.91
2023-04-02T00:09:59.919Z,98690.00
2023-04-02T00:12:26.506Z,98700.31
2023-04-02T00:14:54.634Z,98700.31
2023-04-02T00:17:24.667Z,98705.47
2023-04-02T00:19:54.526Z,98713.19
2023-04-02T00:22:22.779Z,98708.88
2023-04-02T00:24:54.263Z,98715.75
2023-04-02T00:27:21.427Z,98720.06
2023-04-02T00:29:57.888Z,98719.19
2023-04-02T00:32:29.254Z,98707.19
2023-04-02T00:34:55.921Z,98713.19
2023-04-02T00:37:25.105Z,98708.03
2023-04-02T00:39:53.341Z,98719.19
2023-04-02T00:42:20.259Z,98719.19
2023-04-02T00:44:48.958Z,98723.47
2023-04-02T00:47:32.760Z,98726.06
2023-04-02T00:50:02.582Z,98732.06
2023-04-02T00:52:31.913Z,98726.91
2023-04-02T00:55:02.620Z,98727.75
2023-04-02T00:57:29.732Z,98727.75
2023-04-02T01:00:03.612Z,98727.75
2023-04-02T01:02:34.225Z,98720.88
2023-04-02T01:05:16.000Z,98715.72
2023-04-02T01:07:58.738Z,98723.44
2023-04-02T01:10:28.276Z,98722.56
2023-04-02T01:12:54.812Z,98726.03
2023-04-02T01:15:26.068Z,98724.31
2023-04-02T01:17:54.725Z,98719.13
2023-04-02T01:20:27.672Z,98720.84
2023-04-02T01:22:55.062Z,98724.28
2023-04-02T01:25:28.543Z,98726.84
2023-04-02T01:28:05.623Z,98726.00
2023-04-02T01:30:34.866Z,98730.28
2023-04-02T01:33:01.542Z,98725.16
2023-04-02T01:35:31.482Z,98719.16
2023-04-02T01:38:18.979Z,98725.16
2023-04-02T01:40:56.715Z,98718.25
2023-04-02T01:43:29.126Z,98719.13
2023-04-02T01:45:57.428Z,98713.97
2023-04-02T01:48:27.447Z,98713.97
2023-04-02T01:50:55.681Z,98719.94
2023-04-02T01:53:24.931Z,98711.38
2023-04-02T01:55:53.182Z,98719.97
2023-04-02T01:58:24.064Z,98710.50
2023-04-02T02:00:57.025Z,98719.94
2023-04-02T02:03:23.882Z,98715.66
2023-04-02T02:05:50.955Z,98724.25
2023-04-02T02:08:38.591Z,98713.97
2023-04-02T02:11:05.777Z,98713.97
2023-04-02T02:13:32.349Z,98711.38
2023-04-02T02:15:59.376Z,98712.25
2023-04-02T02:18:27.607Z,98719.97
2023-04-02T02:20:55.343Z,98721.69
2023-04-02T02:23:22.295Z,98719.97
2023-04-02T02:25:49.532Z,98719.09
2023-04-02T02:28:19.096Z,98720.84
2023-04-02T02:30:50.969Z,98723.41
2023-04-02T02:33:32.849Z,98732.88
2023-04-02T02:36:05.497Z,98733.72
2023-04-02T02:38:34.999Z,98732.88
2023-04-02T02:41:04.596Z,98739.75
2023-04-02T02:43:32.634Z,98726.00
2023-04-02T02:45:59.685Z,98733.75
2023-04-02T02:48:34.151Z,98729.41
2023-04-02T02:51:02.256Z,98732.88
2023-04-02T02:53:28.913Z,98734.56
2023-04-02T02:55:58.149Z,98726.88
2023-04-02T02:58:27.485Z,98728.56
2023-04-02T03:00:54.537Z,98732.88
2023-04-02T03:03:24.065Z,98735.44
2023-04-02T03:05:55.265Z,98741.44
2023-04-02T03:08:28.500Z,98734.59
2023-04-02T03:10:58.063Z,98744.03
2023-04-02T03:13:27.356Z,98743.16
2023-04-02T03:16:09.249Z,98758.63
2023-04-02T03:18:38.968Z,98755.19
2023-04-02T03:21:05.526Z,98759.50
2023-04-02T03:23:46.361Z,98750.06
2023-04-02T03:26:22.853Z,98753.50
2023-04-02T03:28:56.350Z,98756.91
2023-04-02T03:31:26.590Z,98774.06
2023-04-02T03:33:56.885Z,98763.78
2023-04-02T03:36:28.568Z,98765.50
2023-04-02T03:39:10.090Z,98748.31
2023-04-02T03:42:09.156Z,98756.06
2023-04-02T03:44:39.282Z,98762.06
2023-04-02T03:47:13.099Z,98760.34
2023-04-02T03:49:44.447Z,98766.34
2023-04-02T03:52:12.299Z,98766.34
2023-04-02T03:54:39.624Z,98762.09
2023-04-02T03:57:11.912Z,98763.78
2023-04-02T03:59:48.982Z,98758.63
2023-04-02T04:02:38.630Z,98759.47
2023-04-02T04:05:06.874Z,98751.75
2023-04-02T04:07:41.537Z,98742.28
2023-04-02T04:10:14.674Z,98744.88
2023-04-02T04:12:43.830Z,98746.56
2023-04-02T04:15:25.728Z,98747.41
2023-04-02T04:18:02.413Z,98758.59
2023-04-02T04:20:29.151Z,98765.47
2023-04-02T04:22:56.116Z,98768.03
2023-04-02T04:25:30.375Z,98779.22
2023-04-02T04:27:57.119Z,98779.19
2023-04-02T04:30:35.011Z,98774.94
2023-04-02T04:33:04.846Z,98782.69
2023-04-02T04:35:34.284Z,98781.81
2023-04-02T04:38:27.723Z,98785.25
2023-04-02T04:40:56.632Z,98784.38
2023-04-02T04:43:37.466Z,98782.66
2023-04-02T04:46:08.332Z,98792.09
2023-04-02T04:48:41.642Z,98791.22
2023-04-02T04:51:17.239Z,98794.69
2023-04-02T04:53:48.347Z,98794.69
2023-04-02T04:56:19.574Z,98798.94
2023-04-02T04:58:46.512Z,98794.69
2023-04-02T05:01:17.467Z,98790.41
2023-04-02T05:03:51.928Z,98792.09
2023-04-02T05:06:24.762Z,98796.41
2023-04-02T05:08:52.833Z,98792.09
2023-04-02T05:11:32.542Z,98792.94
2023-04-02T05:14:14.522Z,98797.22
2023-04-02T05:16:48.951Z,98794.66
2023-04-02T05:19:23.755Z,98798.09
2023-04-02T05:22:00.503Z,98800.69
2023-04-02T05:24:29.976Z,98803.25
2023-04-02T05:27:02.945Z,98804.97
2023-04-02T05:29:36.589Z,98822.16
2023-04-02T05:32:03.562Z,98825.59
2023-04-02T05:34:32.861Z,98823.84
2023-04-02T05:36:59.552Z,98816.16
2023-04-02T05:39:27.124Z,98814.44
2023-04-02T05:42:04.888Z,98820.44
2023-04-02T05:44:33.442Z,98813.56
2023-04-02T05:47:12.280Z,98816.13
2023-04-02T05:49:39.303Z,98818.72
2023-04-02T05:52:08.157Z,98823.84
2023-04-02T05:54:39.747Z,98827.28
2023-04-02T05:57:16.227Z,98819.59
2023-04-02T05:59:49.523Z,98825.59
2023-04-02T06:02:31.070Z,98821.28
2023-04-02T06:05:12.610Z,98822.16
2023-04-02T06:07:42.161Z,98827.28
2023-04-02T06:10:24.595Z,98829.00
2023-04-02T06:13:03.536Z,98822.13
2023-04-02T06:15:31.499Z,98822.13
2023-04-02T06:18:18.818Z,98825.56
2023-04-02T06:20:46.195Z,98823.84
2023-04-02T06:23:12.761Z,98827.25
2023-04-02T06:25:44.856Z,98816.06
2023-04-02T06:28:16.691Z,98816.91
2023-04-02T06:30:43.650Z,98828.94
2023-04-02T06:33:12.020Z,98823.78
2023-04-02T06:35:40.356Z,98813.44
2023-04-02T06:38:12.346Z,98818.53
2023-04-02T06:40:47.657Z,98821.13
2023-04-02T06:43:20.826Z,98818.53
2023-04-02T06:45:51.683Z,98831.41
2023-04-02T06:48:19.497Z,98827.09
2023-04-02T06:50:48.640Z,98818.47
2023-04-02T06:53:35.907Z,98832.16
2023-04-02T06:56:05.613Z,98824.41
2023-04-02T06:58:32.184Z,98837.28
2023-04-02T07:00:58.815Z,98820.06
2023-04-02T07:03:27.198Z,98823.53
2023-04-02T07:05:53.955Z,98823.53
2023-04-02T07:08:20.893Z,98831.28
2023-04-02T07:10:47.701Z,98836.47
2023-04-02T07:13:15.902Z,98840.78
2023-04-02T07:15:43.200Z,98837.38
2023-04-02T07:18:23.803Z,98836.50
2023-04-02T07:20:52.045Z,98852.00
2023-04-02T07:23:18.751Z,98842.53
2023-04-02T07:25:45.347Z,98843.38
2023-04-02T07:28:13.521Z,98849.41
2023-04-02T07:30:40.464Z,98849.41
2023-04-02T07:33:07.051Z,98855.41
2023-04-02T07:35:34.873Z,98855.38
2023-04-02T07:38:01.647Z,98852.84
2023-04-02T07:40:28.185Z,98847.63
2023-04-02T07:42:54.815Z,98847.59
2023-04-02T07:45:21.394Z,98851.91
2023-04-02T07:47:47.943Z,98857.00
2023-04-02T07:50:14.732Z,98864.75
2023-04-02T07:52:45.267Z,98858.72
2023-04-02T07:55:13.001Z,98870.75
2023-04-02T07:57:50.347Z,98863.91
2023-04-02T08:00:17.441Z,98860.47
2023-04-02T08:02:44.020Z,98857.91
2023-04-02T08:05:10.792Z,98868.22
2023-04-02T08:07:39.034Z,98868.16
2023-04-02T08:10:06.609Z,98863.00
2023-04-02T08:12:33.206Z,98866.47
2023-04-02T08:14:59.844Z,98864.75
2023-04-02T08:17:31.286Z,98859.56
2023-04-02T08:20:01.757Z,98866.44
2023-04-02T08:22:29.009Z,98868.16
2023-04-02T08:24:56.445Z,98869.00
2023-04-02T08:27:23.802Z,98875.06
2023-04-02T08:29:50.946Z,98871.63
2023-04-02T08:32:17.953Z,98871.63
2023-04-02T08:34:45.083Z,98872.53
2023-04-02T08:37:12.139Z,98877.69
2023-04-02T08:39:39.193Z,98876.81
2023-04-02T08:42:05.976Z,98878.53
2023-04-02T08:44:32.512Z,98869.94
2023-04-02T08:46:59.058Z,98871.66
2023-04-02T08:49:46.009Z,98877.69
2023-04-02T08:52:20.932Z,98873.38
2023-04-02T08:54:47.812Z,98881.06
2023-04-02T08:57:27.330Z,98868.16
2023-04-02T09:00:06.188Z,98873.34
2023-04-02T09:02:39.558Z,98875.06
2023-04-02T09:05:07.555Z,98866.47
2023-04-02T09:07:34.901Z,98869.06
2023-04-02T09:10:02.855Z,98868.22
2023-04-02T09:12:30.995Z,98878.53
2023-04-02T09:15:06.787Z,98869.91
2023-04-02T09:17:42.738Z,98876.75
2023-04-02T09:20:18.013Z,98874.09
2023-04-02T09:22:46.205Z,98871.53
2023-04-02T09:25:15.005Z,98880.19
2023-04-02T09:27:41.800Z,98871.59
2023-04-02T09:30:08.915Z,98873.31
2023-04-02T09:32:42.245Z,98877.53
2023-04-02T09:35:26.261Z,98876.69
2023-04-02T09:38:11.839Z,98875.78
2023-04-02T09:40:58.431Z,98883.47
2023-04-02T09:43:43.105Z,98878.38
2023-04-02T09:46:12.823Z,98883.53
2023-04-02T09:48:50.170Z,98882.69
2023-04-02T09:51:21.760Z,98887.00
2023-04-02T09:53:49.672Z,98887.00
2023-04-02T09:56:20.135Z,98878.38
2023-04-02T09:59:01.966Z,98874.03
2023-04-02T10:01:31.191Z,98868.03
2023-04-02T10:03:59.435Z,98876.59
2023-04-02T10:06:27.618Z,98880.84
2023-04-02T10:08:54.497Z,98881.66
2023-04-02T10:11:21.506Z,98871.31
2023-04-02T10:14:06.161Z,98880.72
2023-04-02T10:16:37.002Z,98882.47
2023-04-02T10:19:07.186Z,98882.31
2023-04-02T10:21:36.225Z,98877.88
2023-04-02T10:24:03.533Z,98877.78
2023-04-02T10:26:45.818Z,98874.16
2023-04-02T10:29:18.472Z,98879.97
2023-04-02T10:32:00.455Z,98873.97
2023-04-02T10:34:36.461Z,98876.47
2023-04-02T10:37:19.977Z,98870.34
2023-04-02T10:39:52.103Z,98865.88
2023-04-02T10:42:26.725Z,98866.50
2023-04-02T10:44:53.269Z,98879.16
2023-04-02T10:47:19.828Z,98872.09
2023-04-02T10:49:49.348Z,98864.97
2023-04-02T10:52:21.334Z,98866.25
2023-04-02T10:54:52.752Z,98859.84
2023-04-02T10:57:25.168Z,98857.66
2023-04-02T11:00:06.065Z,98869.47
2023-04-02T11:02:51.266Z,98865.25
2023-04-02T11:05:18.052Z,98863.84
2023-04-02T11:07:57.489Z,98862.78
2023-04-02T11:10:25.940Z,98862.69
2023-04-02T11:12:57.181Z,98858.53
2023-04-02T11:15:24.155Z,98851.66
2023-04-02T11:17:51.640Z,98851.16
2023-04-02T11:20:47.921Z,98850.38
2023-04-02T11:23:27.485Z,98858.13
2023-04-02T11:26:13.993Z,98863.75
2023-04-02T11:28:41.296Z,98864.22
2023-04-02T11:31:08.030Z,98865.56
2023-04-02T11:33:38.628Z,98874.34
2023-04-02T11:36:25.119Z,98864.16
2023-04-02T11:38:52.921Z,98861.00
2023-04-02T11:41:45.692Z,98868.97
2023-04-02T11:44:23.016Z,98864.75
2023-04-02T11:46:49.651Z,98857.72
2023-04-02T11:49:36.467Z,98868.16
2023-04-02T11:52:11.979Z,98863.94
2023-04-02T11:54:39.453Z,98865.72
2023-04-02T11:57:30.656Z,98857.88
2023-04-02T12:00:17.561Z,98865.66
2023-04-02T12:02:57.145Z,98862.31
2023-04-02T12:05:23.759Z,98868.31
2023-04-02T12:07:53.415Z,98869.19
2023-04-02T12:10:21.976Z,98864.09
2023-04-02T12:12:49.224Z,98865.78
2023-04-02T12:15:24.668Z,98868.34
2023-04-02T12:17:51.434Z,98876.94
2023-04-02T12:20:27.470Z,98876.03
2023-04-02T12:22:55.758Z,98869.13
2023-04-02T12:25:32.780Z,98868.97
2023-04-02T12:28:11.530Z,98861.81
2023-04-02T12:30:38.772Z,98854.72
2023-04-02T12:33:15.764Z,98859.69
2023-04-02T12:35:43.492Z,98864.66
2023-04-02T12:38:20.408Z,98871.34
2023-04-02T12:41:13.463Z,98865.31
2023-04-02T12:43:40.153Z,98871.28
2023-04-02T12:46:07.853Z,98859.91
2023-04-02T12:48:35.167Z,98870.09
2023-04-02T12:51:02.921Z,98870.84
2023-04-02T12:53:36.659Z,98875.91
2023-04-02T12:56:03.802Z,98872.31
2023-04-02T12:58:33.449Z,98873.25
2023-04-02T13:01:12.321Z,98872.56
2023-04-02T13:03:38.916Z,98876.16
2023-04-02T13:06:18.597Z,98883.34
2023-04-02T13:08:45.127Z,98868.84
2023-04-02T13:11:11.809Z,98877.47
2023-04-02T13:13:42.742Z,98880.88
2023-04-02T13:16:15.318Z,98882.72
2023-04-02T13:18:42.727Z,98885.41
2023-04-02T13:21:21.672Z,98879.44
2023-04-02T13:23:48.212Z,98875.19
2023-04-02T13:26:17.438Z,98876.00
2023-04-02T13:28:55.375Z,98873.34
2023-04-02T13:31:22.187Z,98886.38
2023-04-02T13:33:48.828Z,98874.31
2023-04-02T13:36:15.782Z,98881.22
2023-04-02T13:38:42.361Z,98882.13
2023-04-02T13:41:28.090Z,98876.06
2023-04-02T13:43:55.344Z,98885.50
2023-04-02T13:46:23.330Z,98870.72
2023-04-02T13:48:50.518Z,98879.41
2023-04-02T13:51:18.411Z,98878.50
2023-04-02T13:53:46.969Z,98875.09
2023-04-02T13:56:13.697Z,98875.03
2023-04-02T13:58:40.267Z,98873.28
2023-04-02T14:01:06.953Z,98881.91
2023-04-02T14:03:34.517Z,98874.97
2023-04-02T14:06:04.096Z,98879.25
2023-04-02T14:08:42.775Z,98884.47
2023-04-02T14:11:25.015Z,98885.25
2023-04-02T14:13:57.646Z,98881.69
2023-04-02T14:16:28.081Z,98876.56
2023-04-02T14:19:13.814Z,98873.09
2023-04-02T14:21:40.355Z,98880.91
2023-04-02T14:24:16.278Z,98883.47
2023-04-02T14:27:06.343Z,98880.00
2023-04-02T14:29:41.530Z,98885.25
2023-04-02T14:32:11.589Z,98883.44
2023-04-02T14:34:54.043Z,98885.13
2023-04-02T14:37:27.237Z,98885.94
2023-04-02T14:39:57.397Z,98876.44
2023-04-02T14:42:27.147Z,98884.22
2023-04-02T14:45:02.459Z,98877.31
2023-04-02T14:48:02.932Z,98885.06
2023-04-02T14:50:38.892Z,98881.56
2023-04-02T14:53:12.400Z,98871.19
2023-04-02T14:55:42.796Z,98878.16
2023-04-02T14:58:15.665Z,98878.09
2023-04-02T15:00:45.746Z,98874.59
2023-04-02T15:03:16.325Z,98874.50
2023-04-02T15:05:49.847Z,98878.72
2023-04-02T15:08:22.774Z,98879.50
2023-04-02T15:10:56.252Z,98882.94
2023-04-02T15:13:30.609Z,98882.88
2023-04-02T15:16:04.306Z,98883.72
2023-04-02T15:18:31.173Z,98883.66
2023-04-02T15:20:57.693Z,98881.16
2023-04-02T15:23:50.632Z,98885.53
2023-04-02T15:26:23.436Z,98881.34
2023-04-02T15:28:55.344Z,98877.91
2023-04-02T15:31:24.366Z,98875.38
2023-04-02T15:33:55.415Z,98881.50
2023-04-02T15:36:29.572Z,98881.56
2023-04-02T15:38:58.933Z,98881.63
2023-04-02T15:41:26.648Z,98879.09
2023-04-02T15:44:05.551Z,98883.47
2023-04-02T15:46:43.992Z,98886.06
2023-04-02T15:49:10.704Z,98885.19
2023-04-02T15:51:40.004Z,98888.66
2023-04-02T15:54:27.006Z,98883.59
2023-04-02T15:57:16.982Z,98896.59
2023-04-02T15:59:49.837Z,98889.66
2023-04-02T16:02:19.368Z,98890.63
2023-04-02T16:04:53.937Z,98890.69
2023-04-02T16:07:29.718Z,98895.81
2023-04-02T16:09:56.864Z,98906.22
2023-04-02T16:12:25.404Z,98905.41
2023-04-02T16:14:53.334Z,98912.34
2023-04-02T16:17:25.537Z,98907.19
2023-04-02T16:20:25.085Z,98918.47
2023-04-02T16:23:26.977Z,98915.06
2023-04-02T16:26:08.171Z,98916.88
2023-04-02T16:28:43.259Z,98924.69
2023-04-02T16:31:21.969Z,98924.84
2023-04-02T16:34:07.017Z,98924.88
2023-04-02T16:36:52.981Z,98934.41
2023-04-02T16:39:22.408Z,98928.38
2023-04-02T16:42:07.593Z,98932.75
2023-04-02T16:44:43.421Z,98927.59
2023-04-02T16:47:22.788Z,98937.13
2023-04-02T16:49:52.301Z,98939.75
2023-04-02T16:52:37.755Z,98941.50
2023-04-02T16:55:07.383Z,98946.59
2023-04-02T16:57:34.776Z,98943.16
2023-04-02T17:00:19.809Z,98949.19
2023-04-02T17:03:18.950Z,98943.13
2023-04-02T17:05:57.743Z,98946.53
2023-04-02T17:08:30.302Z,98943.13
2023-04-02T17:11:01.646Z,98941.34
2023-04-02T17:13:47.053Z,98946.53
2023-04-02T17:16:20.060Z,98953.47
2023-04-02T17:18:47.787Z,98950.00
2023-04-02T17:21:17.783Z,98952.66
2023-04-02T17:23:55.849Z,98957.88
2023-04-02T17:26:28.390Z,98957.03
2023-04-02T17:28:57.336Z,98958.81
2023-04-02T17:31:25.775Z,98964.00
2023-04-02T17:33:52.540Z,98963.22
2023-04-02T17:36:19.139Z,98958.03
2023-04-02T17:39:06.076Z,98957.19
2023-04-02T17:41:44.860Z,98958.97
2023-04-02T17:44:17.602Z,98964.13
2023-04-02T17:46:44.172Z,98963.31
2023-04-02T17:49:11.119Z,98965.97
2023-04-02T17:51:37.713Z,98966.78
2023-04-02T17:54:04.306Z,98967.69
2023-04-02T17:56:38.255Z,98973.72
2023-04-02T17:59:23.787Z,98965.94
2023-04-02T18:01:50.729Z,98975.47
2023-04-02T18:04:26.400Z,98979.75
2023-04-02T18:07:07.403Z,98981.59
2023-04-02T18:09:34.003Z,98979.88
2023-04-02T18:12:20.504Z,98982.44
2023-04-02T18:14:53.142Z,98979.00
2023-04-02T18:17:19.707Z,98976.44
2023-04-02T18:19:46.293Z,98988.56
2023-04-02T18:22:15.696Z,98988.59
2023-04-02T18:24:59.196Z,98983.38
2023-04-02T18:27:31.048Z,98987.63
2023-04-02T18:29:57.679Z,98991.97
2023-04-02T18:32:24.321Z,98986.81
2023-04-02T18:34:58.012Z,98998.00
2023-04-02T18:38:08.748Z,98987.72
2023-04-02T18:40:38.611Z,98993.75
2023-04-02T18:43:24.823Z,98999.84
2023-04-02T18:45:54.376Z,98995.53
2023-04-02T18:48:41.070Z,98994.69
2023-04-02T18:51:22.065Z,98993.88
2023-04-02T18:54:11.959Z,98995.59
2023-04-02T18:56:39.718Z,98996.38
2023-04-02T18:59:14.730Z,98997.25
2023-04-02T19:01:46.717Z,99000.66
2023-04-02T19:04:16.646Z,99003.28
2023-04-02T19:06:44.625Z,99005.00
2023-04-02T19:09:15.174Z,99009.31
2023-04-02T19:11:41.771Z,99001.66
2023-04-02T19:14:12.920Z,99007.75
2023-04-02T19:16:45.803Z,99001.66
2023-04-02T19:19:18.912Z,99002.50
2023-04-02T19:21:51.695Z,99008.56
2023-04-02T19:24:27.403Z,99005.97
2023-04-02T19:26:57.193Z,99010.31
2023-04-02T19:29:26.873Z,99000.91
2023-04-02T19:31:58.340Z,99009.50
2023-04-02T19:34:46.330Z,99004.34
2023-04-02T19:37:16.862Z,99004.31
2023-04-02T19:40:02.857Z,99005.19
2023-04-02T19:42:35.873Z,99009.44
2023-04-02T19:45:02.880Z,99004.31
2023-04-02T19:47:29.755Z,99006.94
2023-04-02T19:49:56.489Z,99014.75
2023-04-02T19:52:23.088Z,99017.31
2023-04-02T19:54:49.655Z,99009.53
2023-04-02T19:57:17.288Z,99015.56
2023-04-02T19:59:43.972Z,99014.69
2023-04-02T20:02:11.164Z,99017.28
2023-04-02T20:04:40.835Z,99019.84
2023-04-02T20:07:07.782Z,99019.84
2023-04-02T20:09:34.407Z,99014.69
2023-04-02T20:12:01.062Z,99018.19
2023-04-02T20:14:29.593Z,99018.25
2023-04-02T20:16:56.328Z,99018.28
2023-04-02T20:19:23.117Z,99018.31
2023-04-02T20:21:49.751Z,99020.09
2023-04-02T20:24:16.341Z,99028.72
2023-04-02T20:26:42.971Z,99020.19
2023-04-02T20:29:09.577Z,99025.38
2023-04-02T20:31:36.388Z,99019.38
2023-04-02T20:34:05.419Z,99025.41
2023-04-02T20:36:32.357Z,99025.47
2023-04-02T20:38:59.081Z,99030.66
2023-04-02T20:41:26.646Z,99022.91
2023-04-02T20:43:53.742Z,99024.59
2023-04-02T20:46:20.810Z,99029.78
2023-04-02T20:48:47.536Z,99027.22
2023-04-02T20:51:15.343Z,99029.81
2023-04-02T20:53:42.269Z,99030.75
2023-04-02T20:56:10.938Z,99030.78
2023-04-02T20:58:38.012Z,99026.50
2023-04-02T21:01:07.622Z,99018.75
2023-04-02T21:03:34.475Z,99018.75
2023-04-02T21:06:01.158Z,99023.91
2023-04-02T21:08:27.840Z,99026.50
2023-04-02T21:11:01.002Z,99016.16
2023-04-02T21:13:29.130Z,99023.91
2023-04-02T21:15:56.013Z,99013.56
2023-04-02T21:18:22.829Z,99023.91
2023-04-02T21:21:04.350Z,99028.25
2023-04-02T21:23:31.248Z,99029.94
2023-04-02T21:25:58.449Z,99033.38
2023-04-02T21:28:25.465Z,99030.84
2023-04-02T21:30:52.186Z,99026.50
2023-04-02T21:33:18.911Z,99032.59
2023-04-02T21:35:45.756Z,99037.81
2023-04-02T21:38:12.552Z,99049.00
2023-04-02T21:40:40.119Z,99034.34
2023-04-02T21:43:08.886Z,99043.84
2023-04-02T21:45:35.820Z,99042.94
2023-04-02T21:48:02.682Z,99042.09
2023-04-02T21:50:29.358Z,99045.56
2023-04-02T21:52:56.083Z,99049.00
2023-04-02T21:55:22.692Z,99050.78
2023-04-02T21:57:49.274Z,99054.25
2023-04-02T22:00:15.942Z,99039.63
2023-04-02T22:02:42.619Z,99054.31
2023-04-02T22:05:09.380Z,99043.09
2023-04-02T22:07:35.987Z,99044.81
2023-04-02T22:10:02.589Z,99047.41
2023-04-02T22:12:30.065Z,99048.31
2023-04-02T22:14:56.593Z,99044.88
2023-04-02T22:17:23.202Z,99048.31
2023-04-02T22:19:49.773Z,99043.16
2023-04-02T22:22:16.312Z,99042.31
2023-04-02T22:24:42.869Z,99047.47
2023-04-02T22:27:09.448Z,99045.78
2023-04-02T22:29:36.032Z,99050.13
2023-04-02T22:32:02.665Z,99048.38
2023-04-02T22:34:29.322Z,99038.09
2023-04-02T22:36:56.131Z,99039.84
2023-04-02T22:39:22.736Z,99040.69
2023-04-02T22:41:49.298Z,99043.28
2023-04-02T22:44:16.065Z,99050.16
2023-04-02T22:46:42.765Z,99053.59
2023-04-02T22:49:11.048Z,99044.19
2023-04-02T22:51:37.583Z,99049.34
2023-04-02T22:54:04.190Z,99051.09
2023-04-02T22:56:35.375Z,99042.50
2023-04-02T22:59:01.854Z,99043.34
2023-04-02T23:01:30.482Z,99046.81
2023-04-02T23:03:57.119Z,99039.91
2023-04-02T23:06:24.775Z,99046.81
2023-04-02T23:08:51.434Z,99041.63
2023-04-02T23:11:22.255Z,99045.06
2023-04-02T23:13:50.045Z,99045.06
2023-04-02T23:16:17.127Z,99045.97
2023-04-02T23:18:45.780Z,99045.06
2023-04-02T23:21:12.375Z,99039.91
2023-04-02T23:23:39.088Z,99046.81
2023-04-02T23:26:07.385Z,99050.25
2023-04-02T23:28:34.919Z,99051.97
2023-04-02T23:31:02.498Z,99049.38
2023-04-02T23:33:29.229Z,99048.50
2023-04-02T23:35:55.804Z,99051.09
2023-04-02T23:38:22.498Z,99045.94
2023-04-02T23:40:49.048Z,99048.50
2023-04-02T23:43:15.722Z,99049.38
2023-04-02T23:45:46.154Z,99048.56
2023-04-02T23:48:12.784Z,99051.13
2023-04-02T23:50:39.337Z,99041.69
2023-04-02T23:53:05.864Z,99051.13
2023-04-02T23:55:32.594Z,99052.88
2023-04-02T23:57:59.154Z,99044.28
